Terminal Aerodrome Forecast
Issued by NWS Charleston, WV

Current Version | Previous Version | Graphics & Text | Print | Product List | Glossary On
Versions: 1 2 3 4 5 6 7 8 9 10 11 12 13 14 15 16 17 18 19 20 21 22
376
FTUS41 KRLX 211120
TAFCRW
TAF
KCRW 211120Z 2112/2212 00000KT P6SM FEW030 FEW200
     FM211400 19007KT P6SM FEW030 FEW250
     FM211600 21009G15KT P6SM FEW035 FEW200
     FM212000 22010G22KT P6SM SCT150
     FM220000 23009KT P6SM BKN025
     FM220100 23008KT P6SM SCT070
     FM220300 23004KT P6SM SCT200
     FM220800 30003KT P6SM BKN025=

USA.gov is the U.S. government's official web portal to all federal, state and local government web resources and services.